createdAt,value
2022-11-21T00:01:27.370Z,19.97
2022-11-21T00:03:55.166Z,19.10
2022-11-21T00:06:23.640Z,27.67
2022-11-21T00:08:51.579Z,19.90
2022-11-21T00:11:19.412Z,21.10
2022-11-21T00:13:46.995Z,18.37
2022-11-21T00:16:15.872Z,20.93
2022-11-21T00:18:44.316Z,21.63
2022-11-21T00:21:14.002Z,20.73
2022-11-21T00:23:41.900Z,21.53
2022-11-21T00:26:10.810Z,23.37
2022-11-21T00:28:38.446Z,22.20
2022-11-21T00:31:06.751Z,23.47
2022-11-21T00:33:39.294Z,22.40
2022-11-21T00:36:08.866Z,23.23
2022-11-21T00:38:36.835Z,25.77
2022-11-21T00:41:04.668Z,26.37
2022-11-21T00:43:32.490Z,25.90
2022-11-21T00:46:02.628Z,28.13
2022-11-21T00:48:30.988Z,28.00
2022-11-21T00:51:00.549Z,31.27
2022-11-21T00:53:28.515Z,29.07
2022-11-21T00:55:56.406Z,29.87
2022-11-21T00:58:24.247Z,32.00
2022-11-21T01:00:52.088Z,32.23
2022-11-21T01:03:19.760Z,32.33
2022-11-21T01:05:47.590Z,34.77
2022-11-21T01:08:15.164Z,35.50
2022-11-21T01:10:42.983Z,37.53
2022-11-21T01:13:10.626Z,33.17
2022-11-21T01:15:38.503Z,31.93
2022-11-21T01:18:06.144Z,33.97
2022-11-21T01:20:33.933Z,30.53
2022-11-21T01:23:01.630Z,29.67
2022-11-21T01:25:29.438Z,30.00
2022-11-21T01:27:57.116Z,32.20
2022-11-21T01:30:24.994Z,31.97
2022-11-21T01:32:52.593Z,32.27
2022-11-21T01:35:20.569Z,33.87
2022-11-21T01:37:48.478Z,34.83
2022-11-21T01:40:16.530Z,36.03
2022-11-21T01:42:54.202Z,34.90
2022-11-21T01:45:40.907Z,38.40
2022-11-21T01:48:08.638Z,39.83
2022-11-21T01:50:36.534Z,31.13
2022-11-21T01:53:04.206Z,33.90
2022-11-21T01:55:32.144Z,37.37
2022-11-21T01:57:59.837Z,36.63
2022-11-21T02:00:31.205Z,35.97
2022-11-21T02:03:00.864Z,35.53
2022-11-21T02:05:30.502Z,37.20
2022-11-21T02:08:02.949Z,34.47
2022-11-21T02:10:30.817Z,38.57
2022-11-21T02:12:59.365Z,45.90
2022-11-21T02:15:28.700Z,58.30
2022-11-21T02:17:56.586Z,46.23
2022-11-21T02:20:25.900Z,40.00
2022-11-21T02:22:53.583Z,36.07
2022-11-21T02:25:22.691Z,37.40
2022-11-21T02:27:51.091Z,42.40
2022-11-21T02:30:19.416Z,38.53
2022-11-21T02:32:47.257Z,46.20
2022-11-21T02:35:16.658Z,47.30
2022-11-21T02:37:46.098Z,46.13
2022-11-21T02:40:16.607Z,47.27
2022-11-21T02:43:07.220Z,44.37
2022-11-21T02:45:37.882Z,45.40
2022-11-21T02:48:05.921Z,45.37
2022-11-21T02:50:35.091Z,43.43
2022-11-21T02:53:02.848Z,49.37
2022-11-21T02:55:30.932Z,49.47
2022-11-21T02:58:01.708Z,52.93
2022-11-21T03:00:32.971Z,48.30
2022-11-21T03:03:00.615Z,50.60
2022-11-21T03:05:28.621Z,54.00
2022-11-21T03:07:56.324Z,49.90
2022-11-21T03:10:24.127Z,53.23
2022-11-21T03:13:00.768Z,49.30
2022-11-21T03:15:30.058Z,48.83
2022-11-21T03:17:57.895Z,48.23
2022-11-21T03:20:25.808Z,44.73
2022-11-21T03:22:53.692Z,43.47
2022-11-21T03:25:21.575Z,49.37
2022-11-21T03:27:53.498Z,53.57
2022-11-21T03:30:22.019Z,52.73
2022-11-21T03:32:49.819Z,56.87
2022-11-21T03:35:17.732Z,53.43
2022-11-21T03:37:45.334Z,55.70
2022-11-21T03:40:13.424Z,44.73
2022-11-21T03:42:40.997Z,47.77
2022-11-21T03:45:09.147Z,51.60
2022-11-21T03:47:37.180Z,53.40
2022-11-21T03:50:05.213Z,53.27
2022-11-21T03:52:33.516Z,51.37
2022-11-21T03:55:01.340Z,53.27
2022-11-21T03:57:28.889Z,53.50
2022-11-21T03:59:56.806Z,89.47
2022-11-21T04:02:24.420Z,51.87
2022-11-21T04:04:52.194Z,50.47
2022-11-21T04:07:19.810Z,42.90
2022-11-21T04:09:47.655Z,48.90
2022-11-21T04:12:15.272Z,50.60
2022-11-21T04:14:43.124Z,46.53
2022-11-21T04:17:10.674Z,54.70
2022-11-21T04:19:38.514Z,42.97
2022-11-21T04:22:06.032Z,42.00
2022-11-21T04:24:33.838Z,58.80
2022-11-21T04:27:21.280Z,59.33
2022-11-21T04:29:49.080Z,101.17
2022-11-21T04:32:16.620Z,42.47
2022-11-21T04:34:44.455Z,34.10
2022-11-21T04:37:12.163Z,50.50
2022-11-21T04:39:40.068Z,61.17
2022-11-21T04:42:07.736Z,56.13
2022-11-21T04:44:35.741Z,56.60
2022-11-21T04:47:22.141Z,83.07
2022-11-21T04:49:50.056Z,50.77
2022-11-21T04:52:17.638Z,56.07
2022-11-21T04:54:45.598Z,53.20
2022-11-21T04:57:13.221Z,61.23
2022-11-21T04:59:41.041Z,61.93
2022-11-21T05:02:08.705Z,70.93
2022-11-21T05:04:36.591Z,91.73
2022-11-21T05:07:05.603Z,72.60
2022-11-21T05:09:33.448Z,68.97
2022-11-21T05:12:20.162Z,51.80
2022-11-21T05:14:47.972Z,64.77
2022-11-21T05:17:15.566Z,66.40
2022-11-21T05:19:43.514Z,66.40
2022-11-21T05:22:11.263Z,86.33
2022-11-21T05:24:39.243Z,74.53
2022-11-21T05:27:06.802Z,69.47
2022-11-21T05:29:34.635Z,72.20
2022-11-21T05:32:02.614Z,30.37
2022-11-21T05:34:32.276Z,349.50
2022-11-21T05:36:59.899Z,87.43
2022-11-21T05:39:29.632Z,81.70
2022-11-21T05:42:02.506Z,61.97
2022-11-21T05:44:31.486Z,60.17
2022-11-21T05:46:59.153Z,58.83
2022-11-21T05:49:27.139Z,47.93
2022-11-21T05:51:54.648Z,63.83
2022-11-21T05:54:22.509Z,23.67
2022-11-21T05:56:50.139Z,25.23
2022-11-21T05:59:18.101Z,32.50
2022-11-21T06:02:04.228Z,16.53
2022-11-21T06:04:51.661Z,10.90
2022-11-21T06:07:19.412Z,9.73
2022-11-21T06:09:47.252Z,8.10
2022-11-21T06:12:14.782Z,8.93
2022-11-21T06:14:42.577Z,10.00
2022-11-21T06:17:10.097Z,8.10
2022-11-21T06:19:37.836Z,9.13
2022-11-21T06:22:06.458Z,6.70
2022-11-21T06:24:53.805Z,7.40
2022-11-21T06:27:21.482Z,7.80
2022-11-21T06:29:49.296Z,8.03
2022-11-21T06:32:17.059Z,11.17
2022-11-21T06:34:44.992Z,9.83
2022-11-21T06:37:12.522Z,6.17
2022-11-21T06:39:40.372Z,6.73
2022-11-21T06:42:09.613Z,4.87
2022-11-21T06:44:37.450Z,6.20
2022-11-21T06:47:06.594Z,6.05
2022-11-21T06:49:34.470Z,6.30
2022-11-21T06:52:01.970Z,5.28
2022-11-21T06:54:30.392Z,5.18
2022-11-21T06:56:59.503Z,6.05
2022-11-21T06:59:27.378Z,5.40
2022-11-21T07:01:54.892Z,5.00
2022-11-21T07:04:22.778Z,5.20
2022-11-21T07:06:50.294Z,5.35
2022-11-21T07:09:32.671Z,5.25
2022-11-21T07:12:21.426Z,5.03
2022-11-21T07:14:49.287Z,5.60
2022-11-21T07:17:16.867Z,5.00
2022-11-21T07:19:44.718Z,6.05
2022-11-21T07:22:12.339Z,5.20
2022-11-21T07:24:40.159Z,4.38
2022-11-21T07:27:08.558Z,3.83
2022-11-21T07:29:36.492Z,3.45
2022-11-21T07:32:04.019Z,2.38
2022-11-21T07:34:31.900Z,4.18
2022-11-21T07:36:59.723Z,4.05
2022-11-21T07:39:27.711Z,5.00
2022-11-21T07:41:56.293Z,5.85
2022-11-21T07:44:24.174Z,5.72
2022-11-21T07:46:54.688Z,6.97
2022-11-21T07:49:22.986Z,22.83
2022-11-21T07:51:50.984Z,5.05
2022-11-21T07:54:18.825Z,4.20
2022-11-21T07:56:46.377Z,5.70
2022-11-21T07:59:14.311Z,5.00
2022-11-21T08:01:45.356Z,5.07
2022-11-21T08:04:13.596Z,5.45
2022-11-21T08:06:41.217Z,7.13
2022-11-21T08:09:09.115Z,5.43
2022-11-21T08:11:37.310Z,3.80
2022-11-21T08:14:05.192Z,4.55
2022-11-21T08:16:35.480Z,4.78
2022-11-21T08:19:03.472Z,5.78
2022-11-21T08:21:32.110Z,5.15
2022-11-21T08:24:00.002Z,4.68
2022-11-21T08:26:27.587Z,4.82
2022-11-21T08:28:59.718Z,5.68
2022-11-21T08:31:27.840Z,5.40
2022-11-21T08:33:58.956Z,4.90
2022-11-21T08:36:26.472Z,5.53
2022-11-21T08:38:54.437Z,4.38
2022-11-21T08:41:40.595Z,5.43
2022-11-21T08:44:13.650Z,5.07
2022-11-21T08:46:41.894Z,5.25
2022-11-21T08:49:09.881Z,4.38
2022-11-21T08:51:37.404Z,6.00
2022-11-21T08:54:05.344Z,4.47
2022-11-21T08:56:32.886Z,5.22
2022-11-21T08:59:00.729Z,5.60
2022-11-21T09:01:28.438Z,6.05
2022-11-21T09:03:56.470Z,4.38
2022-11-21T09:06:23.984Z,5.13
2022-11-21T09:08:51.932Z,5.32
2022-11-21T09:11:19.725Z,5.43
2022-11-21T09:14:07.594Z,4.78
2022-11-21T09:16:56.847Z,5.32
2022-11-21T09:19:28.918Z,5.35
2022-11-21T09:21:56.775Z,4.90
2022-11-21T09:24:24.673Z,4.35
2022-11-21T09:26:52.418Z,3.95
2022-11-21T09:29:20.610Z,3.83
2022-11-21T09:31:48.213Z,5.25
2022-11-21T09:34:16.153Z,3.60
2022-11-21T09:36:43.739Z,4.15
2022-11-21T09:39:11.693Z,6.15
2022-11-21T09:41:54.205Z,4.57
2022-11-21T09:44:31.559Z,5.82
2022-11-21T09:47:03.552Z,5.03
2022-11-21T09:49:34.045Z,4.53
2022-11-21T09:52:02.136Z,4.82
2022-11-21T09:54:33.205Z,6.40
2022-11-21T09:57:01.966Z,6.43
2022-11-21T09:59:37.531Z,4.22
2022-11-21T10:02:14.565Z,4.80
2022-11-21T10:04:47.186Z,4.95
2022-11-21T10:07:31.531Z,5.00
2022-11-21T10:10:02.409Z,4.82
2022-11-21T10:12:38.578Z,5.03
2022-11-21T10:15:12.581Z,6.22
2022-11-21T10:17:55.320Z,6.05
2022-11-21T10:20:29.888Z,7.22
2022-11-21T10:23:09.858Z,6.63
2022-11-21T10:25:38.852Z,5.13
2022-11-21T10:28:06.454Z,5.90
2022-11-21T10:30:34.469Z,4.63
2022-11-21T10:33:06.274Z,4.07
2022-11-21T10:35:47.830Z,4.93
2022-11-21T10:38:22.853Z,5.38
2022-11-21T10:41:05.508Z,4.28
2022-11-21T10:43:54.574Z,6.22
2022-11-21T10:46:22.452Z,4.72
2022-11-21T10:48:57.947Z,4.75
2022-11-21T10:51:44.514Z,4.18
2022-11-21T10:54:32.363Z,3.88
2022-11-21T10:57:02.209Z,4.55
2022-11-21T10:59:31.454Z,3.92
2022-11-21T11:02:19.705Z,4.32
2022-11-21T11:04:52.213Z,4.32
2022-11-21T11:07:22.548Z,4.43
2022-11-21T11:10:27.803Z,4.07
2022-11-21T11:13:44.436Z,5.05
2022-11-21T11:16:02.819Z,5.65
2022-11-21T11:18:32.047Z,4.45
2022-11-21T11:21:34.894Z,4.03
2022-11-21T11:24:21.261Z,4.43
2022-11-21T11:26:49.532Z,4.65
2022-11-21T11:29:19.278Z,3.78
2022-11-21T11:31:55.265Z,6.53
2022-11-21T11:34:24.666Z,4.75
2022-11-21T11:36:56.415Z,5.80
2022-11-21T11:42:31.073Z,5.40
2022-11-21T11:45:22.976Z,4.80
2022-11-21T11:47:55.069Z,5.22
2022-11-21T11:50:24.787Z,5.28
2022-11-21T11:53:00.037Z,4.18
2022-11-21T11:55:34.629Z,4.70
2022-11-21T11:58:03.573Z,4.68
2022-11-21T12:00:35.908Z,3.97
2022-11-21T12:03:06.624Z,4.47
2022-11-21T12:05:35.409Z,3.33
2022-11-21T12:08:40.294Z,2.92
2022-11-21T12:11:35.530Z,2.67
2022-11-21T12:14:08.180Z,2.33
2022-11-21T12:16:36.505Z,3.53
2022-11-21T12:19:08.681Z,2.95
2022-11-21T12:21:36.537Z,2.78
2022-11-21T12:24:04.752Z,3.05
2022-11-21T12:26:40.987Z,3.30
2022-11-21T12:29:18.270Z,4.80
2022-11-21T12:31:47.206Z,4.15
2022-11-21T12:34:34.079Z,4.13
2022-11-21T12:37:18.755Z,3.25
2022-11-21T12:39:49.177Z,6.05
2022-11-21T12:42:47.173Z,4.45
2022-11-21T12:45:35.113Z,2.90
2022-11-21T12:48:21.552Z,4.53
2022-11-21T12:51:10.701Z,3.63
2022-11-21T12:54:23.646Z,4.63
2022-11-21T12:59:20.517Z,4.28
2022-11-21T13:01:59.971Z,4.40
2022-11-21T13:04:30.904Z,4.05
2022-11-21T13:06:59.137Z,3.42
2022-11-21T13:09:28.290Z,6.10
2022-11-21T13:12:02.283Z,4.18
2022-11-21T13:14:30.452Z,5.45
2022-11-21T13:17:20.978Z,4.15
2022-11-21T13:20:07.281Z,5.63
2022-11-21T13:22:37.920Z,6.20
2022-11-21T13:25:08.441Z,9.87
2022-11-21T13:27:39.803Z,6.53
2022-11-21T13:30:07.704Z,7.50
2022-11-21T13:32:45.177Z,7.30
2022-11-21T13:35:15.628Z,6.32
2022-11-21T13:38:02.301Z,6.70
2022-11-21T13:40:30.221Z,8.05
2022-11-21T13:43:32.079Z,7.50
2022-11-21T13:45:59.166Z,11.40
2022-11-21T13:48:36.392Z,6.75
2022-11-21T13:51:09.950Z,8.07
2022-11-21T13:54:16.133Z,9.18
2022-11-21T13:56:44.374Z,15.07
2022-11-21T13:59:12.228Z,22.90
2022-11-21T14:01:48.929Z,8.95
2022-11-21T14:04:24.033Z,5.13
2022-11-21T14:06:51.932Z,11.18
2022-11-21T14:09:20.301Z,27.05
2022-11-21T14:11:49.948Z,40.00
2022-11-21T14:14:32.831Z,17.23
2022-11-21T14:17:15.898Z,15.38
2022-11-21T14:19:43.688Z,9.40
2022-11-21T14:22:30.502Z,12.00
2022-11-21T14:25:01.996Z,6.55
2022-11-21T14:27:31.512Z,7.15
2022-11-21T14:29:59.918Z,7.68
2022-11-21T14:32:28.456Z,8.75
2022-11-21T14:35:16.382Z,6.93
2022-11-21T14:37:44.681Z,16.15
2022-11-21T14:40:13.818Z,17.63
2022-11-21T14:42:41.607Z,11.93
2022-11-21T14:45:19.894Z,13.18
2022-11-21T14:47:51.534Z,12.20
2022-11-21T14:50:26.145Z,6.88
2022-11-21T14:52:57.726Z,11.85
2022-11-21T14:55:30.583Z,8.63
2022-11-21T14:58:00.388Z,15.52
2022-11-21T15:00:59.217Z,13.13
2022-11-21T15:03:24.142Z,13.23
2022-11-21T15:06:05.951Z,18.15
2022-11-21T15:11:47.218Z,8.00
2022-11-21T15:14:21.920Z,12.20
2022-11-21T15:16:51.065Z,16.05
2022-11-21T15:19:23.512Z,14.95
2022-11-21T15:21:51.895Z,9.38
2022-11-21T15:24:29.607Z,12.73
2022-11-21T15:26:57.286Z,8.77
2022-11-21T15:29:25.354Z,8.43
2022-11-21T15:32:11.537Z,19.90
2022-11-21T15:34:42.105Z,13.10
2022-11-21T15:37:15.415Z,8.85
2022-11-21T15:39:49.853Z,14.90
2022-11-21T15:42:32.806Z,13.10
2022-11-21T15:45:02.009Z,8.48
2022-11-21T15:47:29.656Z,7.40
2022-11-21T15:49:57.713Z,9.00
2022-11-21T15:52:25.316Z,9.75
2022-11-21T15:54:53.269Z,10.23
2022-11-21T15:57:22.084Z,10.65
2022-11-21T15:59:50.562Z,12.32
2022-11-21T16:02:18.239Z,9.65
2022-11-21T16:04:46.777Z,8.82
2022-11-21T16:07:14.439Z,22.40
2022-11-21T16:09:44.791Z,18.85
2022-11-21T16:12:12.420Z,7.95
2022-11-21T16:14:40.410Z,8.40
2022-11-21T16:17:08.513Z,8.75
2022-11-21T16:19:36.529Z,9.50
2022-11-21T16:22:04.040Z,21.02
2022-11-21T16:24:32.024Z,13.75
2022-11-21T16:26:59.598Z,13.02
2022-11-21T16:29:27.708Z,14.45
2022-11-21T16:31:55.985Z,12.10
2022-11-21T16:34:24.055Z,8.38
2022-11-21T16:36:51.561Z,10.40
2022-11-21T16:39:19.547Z,15.00
2022-11-21T16:41:49.034Z,11.38
2022-11-21T16:44:17.234Z,7.35
2022-11-21T16:46:47.200Z,8.10
2022-11-21T16:49:15.309Z,8.85
2022-11-21T16:51:42.829Z,10.35
2022-11-21T16:54:10.708Z,16.17
2022-11-21T16:56:38.389Z,6.00
2022-11-21T16:59:06.363Z,9.23
2022-11-21T17:01:34.082Z,7.55
2022-11-21T17:04:02.159Z,10.43
2022-11-21T17:06:30.917Z,9.60
2022-11-21T17:09:02.049Z,9.98
2022-11-21T17:11:31.232Z,9.20
2022-11-21T17:14:01.036Z,7.97
2022-11-21T17:16:28.924Z,7.68
2022-11-21T17:18:58.027Z,9.88
2022-11-21T17:21:26.135Z,9.75
2022-11-21T17:23:57.175Z,17.15
2022-11-21T17:26:25.753Z,9.32
2022-11-21T17:28:57.720Z,8.95
2022-11-21T17:31:25.725Z,8.93
2022-11-21T17:33:54.736Z,11.88
2022-11-21T17:36:23.531Z,10.45
2022-11-21T17:38:52.137Z,11.13
2022-11-21T17:41:20.629Z,7.68
2022-11-21T17:43:49.049Z,7.82
2022-11-21T17:46:17.972Z,8.38
2022-11-21T17:48:51.449Z,10.40
2022-11-21T17:51:23.489Z,12.82
2022-11-21T17:53:51.853Z,14.02
2022-11-21T17:56:20.900Z,14.20
2022-11-21T17:58:49.150Z,10.70
2022-11-21T18:01:20.317Z,13.23
2022-11-21T18:06:17.533Z,13.60
2022-11-21T18:08:46.524Z,21.10
2022-11-21T18:11:15.663Z,12.27
2022-11-21T18:13:43.585Z,13.07
2022-11-21T18:16:12.927Z,11.90
2022-11-21T18:18:40.888Z,12.70
2022-11-21T18:21:13.139Z,17.33
2022-11-21T18:23:41.177Z,12.52
2022-11-21T18:26:11.796Z,12.07
2022-11-21T18:28:39.833Z,11.30
2022-11-21T18:31:08.834Z,12.65
2022-11-21T18:33:37.194Z,14.55
2022-11-21T18:36:05.848Z,16.85
2022-11-21T18:38:48.072Z,13.73
2022-11-21T18:41:20.219Z,18.10
2022-11-21T18:43:52.578Z,7.97
2022-11-21T18:46:20.837Z,7.78
2022-11-21T18:49:07.326Z,6.38
2022-11-21T18:51:36.005Z,6.95
2022-11-21T18:54:08.593Z,5.90
2022-11-21T18:56:37.300Z,7.30
2022-11-21T18:59:08.138Z,8.95
2022-11-21T19:01:36.772Z,9.20
2022-11-21T19:04:04.907Z,9.32
2022-11-21T19:06:32.816Z,7.78
2022-11-21T19:09:00.809Z,12.30
2022-11-21T19:11:29.673Z,8.88
2022-11-21T19:13:59.349Z,9.57
2022-11-21T19:16:27.582Z,12.15
2022-11-21T19:19:26.505Z,11.35
2022-11-21T19:21:43.290Z,9.07
2022-11-21T19:24:16.020Z,11.50
2022-11-21T19:26:43.624Z,8.23
2022-11-21T19:29:12.089Z,11.57
2022-11-21T19:31:45.286Z,9.82
2022-11-21T19:34:14.939Z,10.73
2022-11-21T19:36:42.694Z,11.15
2022-11-21T19:39:11.115Z,12.48
2022-11-21T19:41:38.737Z,17.20
2022-11-21T19:44:07.096Z,11.05
2022-11-21T19:46:36.081Z,11.77
2022-11-21T19:49:04.599Z,13.82
2022-11-21T19:51:33.832Z,14.50
2022-11-21T19:54:05.099Z,13.48
2022-11-21T19:56:32.853Z,13.75
2022-11-21T19:59:00.876Z,11.95
2022-11-21T20:01:29.761Z,9.90
2022-11-21T20:03:59.184Z,11.80
2022-11-21T20:06:28.338Z,9.23
2022-11-21T20:08:57.295Z,9.48
2022-11-21T20:11:25.714Z,9.68
2022-11-21T20:13:53.825Z,9.13
2022-11-21T20:16:32.068Z,8.95
2022-11-21T20:19:01.401Z,7.85
2022-11-21T20:21:29.066Z,8.32
2022-11-21T20:23:57.350Z,9.18
2022-11-21T20:26:25.705Z,8.80
2022-11-21T20:28:53.830Z,8.38
2022-11-21T20:31:22.850Z,9.18
2022-11-21T20:33:51.044Z,9.82
2022-11-21T20:36:22.822Z,9.63
2022-11-21T20:38:58.045Z,10.25
2022-11-21T20:41:27.273Z,14.15
2022-11-21T20:44:53.229Z,13.23
2022-11-21T20:46:43.831Z,19.42
2022-11-21T20:49:12.602Z,15.35
2022-11-21T20:54:28.895Z,16.48
2022-11-21T20:56:56.726Z,16.40
2022-11-21T20:59:25.898Z,16.05
2022-11-21T21:01:53.664Z,17.20
2022-11-21T21:04:21.644Z,18.33
2022-11-21T21:06:49.327Z,37.22
2022-11-21T21:09:17.334Z,30.30
2022-11-21T21:11:51.985Z,30.40
2022-11-21T21:14:21.441Z,31.55
2022-11-21T21:16:49.350Z,72.13
2022-11-21T21:19:17.786Z,42.30
2022-11-21T21:21:45.839Z,36.15
2022-11-21T21:24:14.322Z,44.05
2022-11-21T21:26:43.799Z,47.95
2022-11-21T21:29:12.842Z,48.47
2022-11-21T21:31:44.087Z,69.05
2022-11-21T21:34:17.894Z,58.33
2022-11-21T21:36:45.576Z,78.45
2022-11-21T21:39:13.814Z,57.40
2022-11-21T21:41:44.673Z,56.25
2022-11-21T21:44:13.137Z,49.72
2022-11-21T21:46:40.802Z,40.33
2022-11-21T21:49:08.753Z,32.25
2022-11-21T21:51:40.057Z,33.30
2022-11-21T21:54:08.422Z,33.13
2022-11-21T21:56:35.956Z,32.03
2022-11-21T21:59:03.939Z,60.63
2022-11-21T22:01:32.596Z,44.87
2022-11-21T22:04:01.819Z,67.27
2022-11-21T22:06:29.833Z,58.30
2022-11-21T22:08:57.850Z,75.23
2022-11-21T22:11:26.330Z,111.20
2022-11-21T22:13:55.646Z,45.10
2022-11-21T22:16:23.351Z,126.50
2022-11-21T22:18:51.599Z,127.23
2022-11-21T22:21:20.829Z,47.90
2022-11-21T22:24:17.784Z,52.07
2022-11-21T22:26:36.484Z,44.60
2022-11-21T22:29:04.368Z,149.63
2022-11-21T22:31:32.957Z,59.90
2022-11-21T22:34:01.842Z,78.43
2022-11-21T22:36:29.727Z,48.37
2022-11-21T22:38:57.678Z,63.03
2022-11-21T22:41:26.681Z,45.27
2022-11-21T22:43:55.901Z,32.77
2022-11-21T22:46:24.050Z,33.67
2022-11-21T22:48:52.029Z,11.00
2022-11-21T22:51:21.689Z,19.87
2022-11-21T22:53:50.227Z,24.83
2022-11-21T22:56:19.249Z,37.07
2022-11-21T22:58:47.434Z,31.50
2022-11-21T23:01:19.421Z,35.93
2022-11-21T23:03:47.651Z,69.30
2022-11-21T23:06:16.836Z,59.53
2022-11-21T23:08:45.212Z,63.07
2022-11-21T23:11:13.883Z,54.93
2022-11-21T23:13:43.144Z,62.30
2022-11-21T23:16:11.304Z,51.53
2022-11-21T23:18:39.741Z,37.87
2022-11-21T23:21:07.798Z,27.47
2022-11-21T23:23:36.082Z,47.87
2022-11-21T23:26:03.728Z,54.97
2022-11-21T23:28:31.821Z,66.33
2022-11-21T23:30:59.421Z,55.90
2022-11-21T23:33:27.228Z,58.77
2022-11-21T23:35:54.786Z,74.63
2022-11-21T23:38:22.729Z,70.00
2022-11-21T23:40:50.579Z,58.40
2022-11-21T23:43:18.812Z,69.00
2022-11-21T23:45:50.343Z,86.17
2022-11-21T23:48:18.690Z,66.97
2022-11-21T23:50:47.079Z,81.07
2022-11-21T23:53:15.169Z,73.70
2022-11-21T23:55:43.346Z,45.53
2022-11-21T23:58:15.852Z,60.77
